Time;durP1;ratioP1;P1;durP2;ratioP2;P2;SDS_P1;SDS_P2;PMS_P1;PMS_P2;Temp;Humidity;BMP_temperature;BMP_pressure;BME280_temperature;BME280_humidity;BME280_pressure;Samples;Min_cycle;Max_cycle;Signal;HPM_P1;HPM_P2
2021/11/30 00:11:45;;;;;;;9.15;5.13;;;;;;;2.48;100.00;98735.59;714466;1177;113680;-75
2021/11/30 00:26:47;;;;;;;9.30;4.93;;;;;;;2.27;100.00;98741.53;714553;1190;114336;-75
2021/11/30 00:41:53;;;;;;;7.13;4.83;;;;;;;2.13;100.00;98765.07;714762;1177;113417;-75
2021/11/30 00:56:56;;;;;;;11.50;5.13;;;;;;;2.15;100.00;98773.52;715206;1176;113947;-76
2021/11/30 01:11:58;;;;;;;10.38;4.85;;;;;;;2.26;100.00;98796.00;714477;1200;113637;-76
2021/11/30 01:27:01;;;;;;;8.30;3.63;;;;;;;2.41;100.00;98804.34;714680;1199;114440;-76
2021/11/30 01:42:03;;;;;;;9.05;4.33;;;;;;;2.38;100.00;98820.11;715066;1176;113854;-75
2021/11/30 01:57:12;;;;;;;6.73;3.50;;;;;;;2.40;100.00;98844.94;714045;1174;113440;-76
2021/11/30 02:12:15;;;;;;;7.18;3.80;;;;;;;2.42;100.00;98848.22;714704;1177;113777;-76
2021/11/30 02:27:20;;;;;;;10.03;4.37;;;;;;;2.44;100.00;98867.05;715491;1177;113498;-76
2021/11/30 02:42:22;;;;;;;4.50;2.80;;;;;;;2.14;100.00;98852.11;713965;1199;114473;-79
2021/11/30 02:57:25;;;;;;;7.68;2.88;;;;;;;1.90;100.00;98847.84;714054;1177;114600;-77
2021/11/30 03:12:27;;;;;;;4.33;2.90;;;;;;;1.64;100.00;98845.42;714159;1201;114111;-76
2021/11/30 03:27:30;;;;;;;5.07;3.00;;;;;;;1.53;100.00;98847.15;714476;1177;113589;-77
2021/11/30 03:42:32;;;;;;;7.33;3.30;;;;;;;1.51;100.00;98830.95;713951;1177;113427;-76
2021/11/30 03:57:35;;;;;;;7.97;4.37;;;;;;;1.46;100.00;98832.08;714053;1174;113314;-76
2021/11/30 04:12:37;;;;;;;6.03;3.68;;;;;;;1.43;100.00;98829.73;713848;1176;113369;-76
2021/11/30 04:27:40;;;;;;;10.75;6.05;;;;;;;1.32;100.00;98821.95;713983;1178;113939;-76
2021/11/30 04:42:45;;;;;;;10.48;5.23;;;;;;;1.21;100.00;98803.81;713754;1176;113762;-76
2021/11/30 04:57:51;;;;;;;15.07;6.60;;;;;;;1.10;100.00;98789.91;714119;1202;113562;-75
2021/11/30 05:12:55;;;;;;;12.23;5.97;;;;;;;1.14;100.00;98801.67;714061;1200;115500;-77
2021/11/30 05:27:57;;;;;;;17.88;8.28;;;;;;;1.27;100.00;98793.86;714115;1200;113906;-75
2021/11/30 05:43:00;;;;;;;58.05;17.25;;;;;;;1.50;100.00;98778.41;713961;1202;112926;-76
2021/11/30 05:58:02;;;;;;;15.18;7.85;;;;;;;1.57;100.00;98779.61;714113;1177;114288;-75
2021/11/30 06:13:05;;;;;;;17.67;9.63;;;;;;;1.72;100.00;98741.43;714118;1177;113889;-76
2021/11/30 06:28:07;;;;;;;30.15;16.30;;;;;;;1.77;100.00;98734.15;713898;1202;114107;-76
2021/11/30 06:43:10;;;;;;;27.48;14.15;;;;;;;1.86;100.00;98718.86;714104;1186;115391;-76
2021/11/30 06:58:12;;;;;;;18.03;9.10;;;;;;;1.89;100.00;98700.52;714100;1176;114213;-72
2021/11/30 07:28:30;;;;;;;96.60;37.87;;;;;;;1.92;100.00;98669.26;714167;1200;114574;-75
2021/11/30 07:43:34;;;;;;;154.65;57.70;;;;;;;1.89;100.00;98659.13;715149;1177;113767;-75
2021/11/30 07:58:37;;;;;;;56.38;19.63;;;;;;;1.92;100.00;98638.22;715464;1202;114807;-74
2021/11/30 08:13:41;;;;;;;171.60;53.53;;;;;;;2.03;100.00;98596.80;715100;1200;114128;-72
2021/11/30 08:28:43;;;;;;;47.80;20.80;;;;;;;2.06;100.00;98577.63;714989;1199;114288;-74
2021/11/30 08:43:46;;;;;;;49.93;20.27;;;;;;;1.98;100.00;98560.16;714896;1202;113543;-74
2021/11/30 08:59:04;;;;;;;77.17;42.00;;;;;;;2.07;100.00;98532.70;715579;1199;114139;-72
2021/11/30 09:14:08;;;;;;;37.85;20.05;;;;;;;2.05;100.00;98488.05;719461;1199;114590;-71
2021/11/30 09:29:11;;;;;;;29.53;13.33;;;;;;;2.05;100.00;98426.78;716633;1199;114890;-71
2021/11/30 09:44:15;;;;;;;28.98;12.90;;;;;;;2.21;100.00;98387.52;715728;1199;114222;-71
2021/11/30 09:59:18;;;;;;;28.48;14.93;;;;;;;2.14;100.00;98361.34;715298;1199;115398;-73
2021/11/30 10:14:24;;;;;;;34.20;17.78;;;;;;;2.13;100.00;98314.91;715218;1202;114061;-73
2021/11/30 10:29:30;;;;;;;32.35;16.80;;;;;;;2.22;100.00;98274.48;715747;1199;115278;-75
2021/11/30 10:44:32;;;;;;;24.83;14.00;;;;;;;2.47;100.00;98206.73;715045;1200;113830;-73
2021/11/30 10:59:35;;;;;;;28.33;14.05;;;;;;;2.54;100.00;98149.25;715156;1203;115657;-73
2021/11/30 11:14:48;;;;;;;30.15;13.40;;;;;;;2.59;100.00;98113.42;715403;1199;115004;-73
2021/11/30 11:29:51;;;;;;;27.80;14.47;;;;;;;2.48;100.00;98050.48;715878;1199;113763;-72
2021/11/30 11:44:56;;;;;;;35.80;18.08;;;;;;;2.63;100.00;98000.86;715062;1199;115061;-72
2021/11/30 12:00:15;;;;;;;34.87;16.23;;;;;;;2.52;100.00;97936.31;715128;1200;114261;-70
2021/11/30 12:15:19;;;;;;;91.17;34.07;;;;;;;2.54;100.00;97893.80;715053;1177;114215;-72
2021/11/30 12:30:33;;;;;;;50.98;23.48;;;;;;;2.54;100.00;97854.17;715005;1199;115072;-74
2021/11/30 12:45:36;;;;;;;62.95;28.13;;;;;;;2.53;100.00;97813.70;716535;1199;114446;-74
2021/11/30 13:00:39;;;;;;;39.27;20.30;;;;;;;2.49;100.00;97762.24;714251;1199;114172;-74
2021/11/30 13:15:47;;;;;;;72.00;31.57;;;;;;;2.50;100.00;97732.78;714993;1199;114526;-74
2021/11/30 13:30:54;;;;;;;53.45;28.53;;;;;;;2.52;100.00;97685.25;714551;1199;115631;-73
2021/11/30 13:45:58;;;;;;;42.25;20.50;;;;;;;2.49;100.00;97663.06;714526;1199;114459;-72
2021/11/30 14:16:54;;;;;;;35.13;18.70;;;;;;;2.43;100.00;97597.19;714002;1174;113965;-72
2021/11/30 14:32:06;;;;;;;30.73;15.45;;;;;;;2.35;100.00;97584.19;714598;1201;114539;-75
2021/11/30 14:47:16;;;;;;;32.37;16.60;;;;;;;2.35;100.00;97560.08;714353;1199;115373;-73
2021/11/30 15:02:28;;;;;;;35.77;15.67;;;;;;;2.37;100.00;97561.55;714338;1199;114227;-73
2021/11/30 15:17:31;;;;;;;88.68;34.55;;;;;;;2.27;100.00;97550.47;714242;1202;113765;-72
2021/11/30 15:32:34;;;;;;;99.73;40.07;;;;;;;2.34;100.00;97535.98;714470;1177;114127;-72
2021/11/30 15:47:39;;;;;;;40.00;20.95;;;;;;;2.39;100.00;97538.94;714260;1175;113800;-72
2021/11/30 16:02:43;;;;;;;74.73;25.63;;;;;;;2.47;100.00;97522.67;714446;1174;113666;-71
2021/11/30 16:17:46;;;;;;;54.30;23.93;;;;;;;2.58;100.00;97521.59;714269;1174;113752;-71
2021/11/30 16:32:48;;;;;;;28.55;15.00;;;;;;;2.55;100.00;97521.88;714534;1202;114985;-71
2021/11/30 16:47:51;;;;;;;45.68;23.85;;;;;;;2.55;100.00;97503.77;714426;1199;114102;-72
2021/11/30 17:02:54;;;;;;;54.53;25.40;;;;;;;2.53;100.00;97492.77;714354;1199;113810;-71
2021/11/30 17:17:57;;;;;;;42.20;20.37;;;;;;;2.57;100.00;97499.27;714187;1199;114273;-72
2021/11/30 17:33:01;;;;;;;29.35;16.05;;;;;;;2.57;100.00;97505.23;714179;1177;113633;-72
2021/11/30 17:48:04;;;;;;;34.37;16.23;;;;;;;2.55;100.00;97516.70;714659;1199;115040;-71
2021/11/30 18:03:09;;;;;;;69.55;26.38;;;;;;;2.60;100.00;97536.02;714705;1199;113970;-71
2021/11/30 18:18:13;;;;;;;169.23;54.35;;;;;;;2.69;100.00;97567.13;714282;1185;114525;-70
2021/11/30 18:33:16;;;;;;;129.50;58.80;;;;;;;2.76;100.00;97596.61;714612;1180;113289;-69
2021/11/30 18:48:19;;;;;;;47.23;25.60;;;;;;;2.78;100.00;97620.59;714796;1200;114055;-70
2021/11/30 19:03:21;;;;;;;44.23;19.33;;;;;;;2.94;100.00;97658.73;714117;1174;113850;-70
2021/11/30 19:18:24;;;;;;;48.60;19.00;;;;;;;2.93;100.00;97696.78;714032;1174;113697;-71
2021/11/30 19:33:28;;;;;;;34.45;15.80;;;;;;;2.89;100.00;97736.06;714213;1200;115269;-73
2021/11/30 19:48:37;;;;;;;68.73;24.88;;;;;;;2.85;100.00;97777.00;714311;1176;114300;-73
2021/11/30 20:19:03;;;;;;;58.30;22.23;;;;;;;3.00;100.00;97867.95;713970;1199;115486;-75
2021/11/30 20:34:09;;;;;;;29.45;15.35;;;;;;;2.96;100.00;97918.42;714398;1175;114262;-75
2021/11/30 20:49:19;;;;;;;31.25;13.18;;;;;;;2.83;100.00;97968.75;714469;1199;113694;-74
2021/11/30 21:04:24;;;;;;;163.60;44.30;;;;;;;2.87;100.00;98026.27;714725;1177;113827;-74
2021/11/30 21:19:28;;;;;;;108.10;34.40;;;;;;;2.89;100.00;98068.39;714947;1199;115081;-73
2021/11/30 21:34:31;;;;;;;127.08;38.20;;;;;;;2.85;100.00;98113.66;715377;1175;114148;-73
2021/11/30 21:49:34;;;;;;;310.80;96.00;;;;;;;2.85;100.00;98143.91;716022;1199;115685;-73
2021/11/30 22:04:36;;;;;;;63.43;27.28;;;;;;;2.81;100.00;98195.98;715602;1176;114675;-73
2021/11/30 22:19:40;;;;;;;46.30;19.73;;;;;;;2.78;100.00;98258.39;715564;1196;113255;-74
2021/11/30 22:34:43;;;;;;;46.18;18.80;;;;;;;2.80;100.00;98289.36;716252;1199;114180;-76
2021/11/30 22:49:46;;;;;;;33.80;14.40;;;;;;;2.72;100.00;98341.81;715417;1199;114346;-73
2021/11/30 23:04:49;;;;;;;32.10;14.50;;;;;;;2.71;100.00;98386.78;715583;1199;113969;-74
2021/11/30 23:19:52;;;;;;;23.58;11.45;;;;;;;2.59;100.00;98413.73;715794;1176;113942;-73
2021/11/30 23:34:54;;;;;;;24.90;11.07;;;;;;;2.53;100.00;98438.34;715651;1176;113719;-73
